Dover, Delaware
Current Conditions -  °F | °C
As of 7:08 PM on Monday 22 Dec 2014 (Local Time) from KDOV Reporting Station
Light Rain Light Rain  
Wind Chill:   Ceiling: 6500
Heat Index:   Visibility: 10mi
Dew Point:   Wind: 12mph
Humidity: 100%   Direction: 30°NNE
Pressure: 30.12"   Gusts: NA
Location:  39.16°N, 75.52°W
Report Text: KDOV 230008Z AUTO 03010KT 10SM -RA SCT018 SCT036 OVC065 06/06 A3012 RMK AO2 CIG 018 RWY19
Loading
Personal Weather Stations






























Interactive Weather Map New forecast layout! Learn more

10-Day Weather Forecast

Advertisements
Track Severe Weather on mobile